sensor_id;sensor_type;location;lat;lon;timestamp;P1;durP1;ratioP1;P2;durP2;ratioP2
78799;SDS011;68148;55.328;86.106;2023-03-04T00:00:16;2.13;;;0.75;;
78799;SDS011;68148;55.328;86.106;2023-03-04T00:02:42;2.10;;;0.47;;
78799;SDS011;68148;55.328;86.106;2023-03-04T00:05:09;0.55;;;0.25;;
78799;SDS011;68148;55.328;86.106;2023-03-04T00:07:35;1.13;;;0.50;;
78799;SDS011;68148;55.328;86.106;2023-03-04T00:10:03;0.10;;;0.03;;
78799;SDS011;68148;55.328;86.106;2023-03-04T00:12:29;0.93;;;0.68;;
78799;SDS011;68148;55.328;86.106;2023-03-04T00:14:55;0.98;;;0.32;;
78799;SDS011;68148;55.328;86.106;2023-03-04T00:17:21;3.35;;;0.40;;
78799;SDS011;68148;55.328;86.106;2023-03-04T00:19:47;1.33;;;0.50;;
78799;SDS011;68148;55.328;86.106;2023-03-04T00:22:13;0.30;;;0.20;;
78799;SDS011;68148;55.328;86.106;2023-03-04T00:24:39;0.85;;;0.50;;
78799;SDS011;68148;55.328;86.106;2023-03-04T00:27:05;0.90;;;0.47;;
78799;SDS011;68148;55.328;86.106;2023-03-04T00:29:33;0.45;;;0.45;;
78799;SDS011;68148;55.328;86.106;2023-03-04T00:31:59;2.05;;;1.10;;
78799;SDS011;68148;55.328;86.106;2023-03-04T00:34:28;2.88;;;0.90;;
78799;SDS011;68148;55.328;86.106;2023-03-04T00:37:04;2.92;;;0.98;;
78799;SDS011;68148;55.328;86.106;2023-03-04T00:39:30;4.80;;;1.08;;
78799;SDS011;68148;55.328;86.106;2023-03-04T00:41:57;6.57;;;1.42;;
78799;SDS011;68148;55.328;86.106;2023-03-04T00:44:24;3.92;;;1.83;;
78799;SDS011;68148;55.328;86.106;2023-03-04T00:46:50;4.93;;;2.00;;
78799;SDS011;68148;55.328;86.106;2023-03-04T00:49:16;3.28;;;1.30;;
78799;SDS011;68148;55.328;86.106;2023-03-04T00:51:42;1.92;;;0.68;;
78799;SDS011;68148;55.328;86.106;2023-03-04T00:54:08;0.77;;;0.60;;
78799;SDS011;68148;55.328;86.106;2023-03-04T00:56:34;4.30;;;0.90;;
78799;SDS011;68148;55.328;86.106;2023-03-04T00:59:00;1.27;;;0.70;;
78799;SDS011;68148;55.328;86.106;2023-03-04T01:01:28;1.33;;;0.52;;
78799;SDS011;68148;55.328;86.106;2023-03-04T01:03:53;1.67;;;0.65;;
78799;SDS011;68148;55.328;86.106;2023-03-04T01:06:20;1.17;;;0.70;;
78799;SDS011;68148;55.328;86.106;2023-03-04T01:08:46;0.52;;;0.28;;
78799;SDS011;68148;55.328;86.106;2023-03-04T01:11:12;1.17;;;0.77;;
78799;SDS011;68148;55.328;86.106;2023-03-04T01:13:38;0.93;;;0.47;;
78799;SDS011;68148;55.328;86.106;2023-03-04T01:16:04;0.50;;;0.32;;
78799;SDS011;68148;55.328;86.106;2023-03-04T01:18:32;1.50;;;0.38;;
78799;SDS011;68148;55.328;86.106;2023-03-04T01:20:58;0.93;;;0.20;;
78799;SDS011;68148;55.328;86.106;2023-03-04T01:23:25;1.10;;;0.77;;
78799;SDS011;68148;55.328;86.106;2023-03-04T01:25:51;5.15;;;0.35;;
78799;SDS011;68148;55.328;86.106;2023-03-04T01:28:17;0.45;;;0.08;;
78799;SDS011;68148;55.328;86.106;2023-03-04T01:30:44;1.20;;;0.80;;
78799;SDS011;68148;55.328;86.106;2023-03-04T01:33:13;1.38;;;0.85;;
78799;SDS011;68148;55.328;86.106;2023-03-04T01:35:39;0.60;;;0.43;;
78799;SDS011;68148;55.328;86.106;2023-03-04T01:38:08;2.08;;;0.82;;
78799;SDS011;68148;55.328;86.106;2023-03-04T01:40:34;1.40;;;0.50;;
78799;SDS011;68148;55.328;86.106;2023-03-04T01:43:02;1.33;;;0.45;;
78799;SDS011;68148;55.328;86.106;2023-03-04T01:45:29;0.45;;;0.32;;
78799;SDS011;68148;55.328;86.106;2023-03-04T01:47:56;2.83;;;0.47;;
78799;SDS011;68148;55.328;86.106;2023-03-04T01:50:26;1.33;;;0.80;;
78799;SDS011;68148;55.328;86.106;2023-03-04T01:52:56;0.40;;;0.38;;
78799;SDS011;68148;55.328;86.106;2023-03-04T01:55:23;1.05;;;0.80;;
78799;SDS011;68148;55.328;86.106;2023-03-04T01:57:49;3.78;;;1.23;;
78799;SDS011;68148;55.328;86.106;2023-03-04T02:00:30;1.58;;;0.80;;
78799;SDS011;68148;55.328;86.106;2023-03-04T02:05:36;2.10;;;0.85;;
78799;SDS011;68148;55.328;86.106;2023-03-04T02:08:04;7.95;;;1.17;;
78799;SDS011;68148;55.328;86.106;2023-03-04T02:10:31;0.77;;;0.40;;
78799;SDS011;68148;55.328;86.106;2023-03-04T02:12:59;1.00;;;0.43;;
78799;SDS011;68148;55.328;86.106;2023-03-04T02:15:26;1.77;;;0.80;;
78799;SDS011;68148;55.328;86.106;2023-03-04T02:17:53;2.03;;;0.82;;
78799;SDS011;68148;55.328;86.106;2023-03-04T02:20:31;2.28;;;1.00;;
78799;SDS011;68148;55.328;86.106;2023-03-04T02:23:19;2.42;;;0.60;;
78799;SDS011;68148;55.328;86.106;2023-03-04T02:26:11;0.88;;;0.45;;
78799;SDS011;68148;55.328;86.106;2023-03-04T02:28:51;2.10;;;0.57;;
78799;SDS011;68148;55.328;86.106;2023-03-04T02:31:25;1.15;;;0.65;;
78799;SDS011;68148;55.328;86.106;2023-03-04T02:34:10;0.63;;;0.43;;
78799;SDS011;68148;55.328;86.106;2023-03-04T02:36:39;3.05;;;1.20;;
78799;SDS011;68148;55.328;86.106;2023-03-04T02:39:10;0.17;;;0.17;;
78799;SDS011;68148;55.328;86.106;2023-03-04T02:41:42;3.38;;;1.30;;
78799;SDS011;68148;55.328;86.106;2023-03-04T02:44:19;3.05;;;1.13;;
78799;SDS011;68148;55.328;86.106;2023-03-04T02:46:50;2.28;;;0.70;;
78799;SDS011;68148;55.328;86.106;2023-03-04T02:49:17;2.78;;;1.13;;
78799;SDS011;68148;55.328;86.106;2023-03-04T02:51:45;9.80;;;0.90;;
78799;SDS011;68148;55.328;86.106;2023-03-04T02:54:15;4.20;;;0.80;;
78799;SDS011;68148;55.328;86.106;2023-03-04T02:56:46;1.10;;;0.65;;
78799;SDS011;68148;55.328;86.106;2023-03-04T02:59:14;2.97;;;0.90;;
78799;SDS011;68148;55.328;86.106;2023-03-04T03:01:40;5.45;;;0.70;;
78799;SDS011;68148;55.328;86.106;2023-03-04T03:04:07;2.67;;;0.70;;
78799;SDS011;68148;55.328;86.106;2023-03-04T03:06:36;2.85;;;0.60;;
78799;SDS011;68148;55.328;86.106;2023-03-04T03:09:03;3.47;;;0.90;;
78799;SDS011;68148;55.328;86.106;2023-03-04T03:11:30;3.28;;;1.13;;
78799;SDS011;68148;55.328;86.106;2023-03-04T03:14:03;3.08;;;0.93;;
78799;SDS011;68148;55.328;86.106;2023-03-04T03:16:44;3.78;;;1.42;;
78799;SDS011;68148;55.328;86.106;2023-03-04T03:19:19;1.17;;;0.82;;
78799;SDS011;68148;55.328;86.106;2023-03-04T03:22:06;2.35;;;0.98;;
78799;SDS011;68148;55.328;86.106;2023-03-04T03:24:32;2.80;;;1.15;;
78799;SDS011;68148;55.328;86.106;2023-03-04T03:29:29;2.17;;;1.02;;
78799;SDS011;68148;55.328;86.106;2023-03-04T03:31:58;3.53;;;1.30;;
78799;SDS011;68148;55.328;86.106;2023-03-04T03:37:38;8.63;;;1.52;;
78799;SDS011;68148;55.328;86.106;2023-03-04T03:40:08;0.00;;;0.00;;
78799;SDS011;68148;55.328;86.106;2023-03-04T03:42:41;3.17;;;1.00;;
78799;SDS011;68148;55.328;86.106;2023-03-04T03:45:07;3.97;;;1.50;;
78799;SDS011;68148;55.328;86.106;2023-03-04T03:47:36;5.22;;;1.55;;
78799;SDS011;68148;55.328;86.106;2023-03-04T03:50:02;4.82;;;1.33;;
78799;SDS011;68148;55.328;86.106;2023-03-04T03:52:29;1.45;;;0.93;;
78799;SDS011;68148;55.328;86.106;2023-03-04T03:54:55;6.50;;;1.52;;
78799;SDS011;68148;55.328;86.106;2023-03-04T03:57:21;1.95;;;0.95;;
78799;SDS011;68148;55.328;86.106;2023-03-04T03:59:47;4.43;;;1.40;;
78799;SDS011;68148;55.328;86.106;2023-03-04T04:02:13;5.88;;;1.67;;
78799;SDS011;68148;55.328;86.106;2023-03-04T04:04:48;2.50;;;1.05;;
78799;SDS011;68148;55.328;86.106;2023-03-04T04:07:14;2.25;;;1.40;;
78799;SDS011;68148;55.328;86.106;2023-03-04T04:09:41;5.00;;;2.15;;
78799;SDS011;68148;55.328;86.106;2023-03-04T04:12:08;2.70;;;1.55;;
78799;SDS011;68148;55.328;86.106;2023-03-04T04:14:34;9.95;;;2.60;;
78799;SDS011;68148;55.328;86.106;2023-03-04T04:17:03;7.47;;;2.30;;
78799;SDS011;68148;55.328;86.106;2023-03-04T04:19:29;8.20;;;2.28;;
78799;SDS011;68148;55.328;86.106;2023-03-04T04:21:55;5.35;;;2.67;;
78799;SDS011;68148;55.328;86.106;2023-03-04T04:24:21;5.57;;;1.63;;
78799;SDS011;68148;55.328;86.106;2023-03-04T04:26:47;3.65;;;1.25;;
78799;SDS011;68148;55.328;86.106;2023-03-04T04:29:13;5.57;;;1.80;;
78799;SDS011;68148;55.328;86.106;2023-03-04T04:31:43;4.93;;;2.05;;
78799;SDS011;68148;55.328;86.106;2023-03-04T04:34:09;2.50;;;1.13;;
78799;SDS011;68148;55.328;86.106;2023-03-04T04:36:35;2.72;;;1.40;;
78799;SDS011;68148;55.328;86.106;2023-03-04T04:39:02;4.50;;;1.63;;
78799;SDS011;68148;55.328;86.106;2023-03-04T04:42:01;2.85;;;1.30;;
78799;SDS011;68148;55.328;86.106;2023-03-04T04:44:20;0.75;;;0.70;;
78799;SDS011;68148;55.328;86.106;2023-03-04T04:46:46;1.77;;;0.75;;
78799;SDS011;68148;55.328;86.106;2023-03-04T04:49:15;4.18;;;0.70;;
78799;SDS011;68148;55.328;86.106;2023-03-04T04:51:42;1.23;;;0.52;;
78799;SDS011;68148;55.328;86.106;2023-03-04T04:54:08;2.60;;;1.67;;
78799;SDS011;68148;55.328;86.106;2023-03-04T04:56:35;2.08;;;1.08;;
78799;SDS011;68148;55.328;86.106;2023-03-04T04:59:04;1.90;;;0.90;;
78799;SDS011;68148;55.328;86.106;2023-03-04T05:01:33;4.30;;;1.73;;
78799;SDS011;68148;55.328;86.106;2023-03-04T05:04:00;5.75;;;1.73;;
78799;SDS011;68148;55.328;86.106;2023-03-04T05:06:27;6.30;;;1.80;;
78799;SDS011;68148;55.328;86.106;2023-03-04T05:08:54;6.03;;;1.55;;
78799;SDS011;68148;55.328;86.106;2023-03-04T05:11:23;3.22;;;2.00;;
78799;SDS011;68148;55.328;86.106;2023-03-04T05:13:49;5.28;;;1.95;;
78799;SDS011;68148;55.328;86.106;2023-03-04T05:16:17;5.75;;;2.42;;
78799;SDS011;68148;55.328;86.106;2023-03-04T05:18:43;5.72;;;2.42;;
78799;SDS011;68148;55.328;86.106;2023-03-04T05:21:12;2.95;;;1.48;;
78799;SDS011;68148;55.328;86.106;2023-03-04T05:23:44;8.40;;;1.50;;
78799;SDS011;68148;55.328;86.106;2023-03-04T05:26:14;4.07;;;1.98;;
78799;SDS011;68148;55.328;86.106;2023-03-04T05:28:42;1.98;;;0.85;;
78799;SDS011;68148;55.328;86.106;2023-03-04T05:31:09;3.88;;;2.22;;
78799;SDS011;68148;55.328;86.106;2023-03-04T05:33:40;3.05;;;1.10;;
78799;SDS011;68148;55.328;86.106;2023-03-04T05:36:08;5.47;;;2.25;;
78799;SDS011;68148;55.328;86.106;2023-03-04T05:38:34;6.28;;;2.20;;
78799;SDS011;68148;55.328;86.106;2023-03-04T05:41:02;3.88;;;1.77;;
78799;SDS011;68148;55.328;86.106;2023-03-04T05:43:30;2.33;;;1.40;;
78799;SDS011;68148;55.328;86.106;2023-03-04T05:45:56;8.25;;;2.88;;
78799;SDS011;68148;55.328;86.106;2023-03-04T05:48:23;5.18;;;1.90;;
78799;SDS011;68148;55.328;86.106;2023-03-04T05:50:52;3.03;;;1.25;;
78799;SDS011;68148;55.328;86.106;2023-03-04T05:53:22;1.50;;;0.68;;
78799;SDS011;68148;55.328;86.106;2023-03-04T05:55:49;1.45;;;1.15;;
78799;SDS011;68148;55.328;86.106;2023-03-04T05:58:15;4.85;;;2.00;;
78799;SDS011;68148;55.328;86.106;2023-03-04T06:00:41;8.88;;;1.80;;
78799;SDS011;68148;55.328;86.106;2023-03-04T06:03:18;2.67;;;1.77;;
78799;SDS011;68148;55.328;86.106;2023-03-04T06:05:46;3.53;;;1.15;;
78799;SDS011;68148;55.328;86.106;2023-03-04T06:08:15;10.18;;;2.15;;
78799;SDS011;68148;55.328;86.106;2023-03-04T06:10:41;3.83;;;1.85;;
78799;SDS011;68148;55.328;86.106;2023-03-04T06:13:07;4.03;;;1.48;;
78799;SDS011;68148;55.328;86.106;2023-03-04T06:15:34;5.68;;;1.85;;
78799;SDS011;68148;55.328;86.106;2023-03-04T06:18:02;5.82;;;1.98;;
78799;SDS011;68148;55.328;86.106;2023-03-04T06:20:28;3.60;;;1.67;;
78799;SDS011;68148;55.328;86.106;2023-03-04T06:22:54;8.38;;;1.42;;
78799;SDS011;68148;55.328;86.106;2023-03-04T06:25:20;5.43;;;1.70;;
78799;SDS011;68148;55.328;86.106;2023-03-04T06:27:47;4.28;;;1.48;;
78799;SDS011;68148;55.328;86.106;2023-03-04T06:30:15;3.97;;;1.88;;
78799;SDS011;68148;55.328;86.106;2023-03-04T06:32:45;3.50;;;1.85;;
78799;SDS011;68148;55.328;86.106;2023-03-04T06:35:12;1.80;;;0.80;;
78799;SDS011;68148;55.328;86.106;2023-03-04T06:37:43;1.98;;;1.25;;
78799;SDS011;68148;55.328;86.106;2023-03-04T06:40:10;2.08;;;0.85;;
78799;SDS011;68148;55.328;86.106;2023-03-04T06:42:44;3.50;;;1.35;;
78799;SDS011;68148;55.328;86.106;2023-03-04T06:45:10;2.53;;;0.95;;
78799;SDS011;68148;55.328;86.106;2023-03-04T06:47:37;4.18;;;1.10;;
78799;SDS011;68148;55.328;86.106;2023-03-04T06:50:03;3.97;;;1.45;;
78799;SDS011;68148;55.328;86.106;2023-03-04T06:52:37;3.72;;;1.60;;
78799;SDS011;68148;55.328;86.106;2023-03-04T06:55:04;5.60;;;2.08;;
78799;SDS011;68148;55.328;86.106;2023-03-04T06:57:30;0.57;;;0.28;;
78799;SDS011;68148;55.328;86.106;2023-03-04T06:59:56;2.88;;;1.08;;
78799;SDS011;68148;55.328;86.106;2023-03-04T07:02:22;3.92;;;1.67;;
78799;SDS011;68148;55.328;86.106;2023-03-04T07:04:49;3.95;;;1.80;;
78799;SDS011;68148;55.328;86.106;2023-03-04T07:07:15;6.97;;;2.17;;
78799;SDS011;68148;55.328;86.106;2023-03-04T07:09:41;2.80;;;1.40;;
78799;SDS011;68148;55.328;86.106;2023-03-04T07:12:07;2.42;;;1.25;;
78799;SDS011;68148;55.328;86.106;2023-03-04T07:14:33;8.88;;;2.17;;
78799;SDS011;68148;55.328;86.106;2023-03-04T07:16:59;7.32;;;2.58;;
78799;SDS011;68148;55.328;86.106;2023-03-04T07:19:25;6.68;;;2.63;;
78799;SDS011;68148;55.328;86.106;2023-03-04T07:21:52;7.10;;;2.47;;
78799;SDS011;68148;55.328;86.106;2023-03-04T07:24:18;6.15;;;2.45;;
78799;SDS011;68148;55.328;86.106;2023-03-04T07:26:43;10.70;;;3.25;;
78799;SDS011;68148;55.328;86.106;2023-03-04T07:29:11;5.53;;;2.17;;
78799;SDS011;68148;55.328;86.106;2023-03-04T07:31:37;10.90;;;2.38;;
78799;SDS011;68148;55.328;86.106;2023-03-04T07:34:05;5.55;;;2.13;;
78799;SDS011;68148;55.328;86.106;2023-03-04T07:36:33;6.95;;;2.53;;
78799;SDS011;68148;55.328;86.106;2023-03-04T07:39:01;3.20;;;1.20;;
78799;SDS011;68148;55.328;86.106;2023-03-04T07:41:28;2.75;;;1.27;;
78799;SDS011;68148;55.328;86.106;2023-03-04T07:43:55;4.53;;;2.22;;
78799;SDS011;68148;55.328;86.106;2023-03-04T07:46:22;3.05;;;1.75;;
78799;SDS011;68148;55.328;86.106;2023-03-04T07:48:48;4.22;;;1.67;;
78799;SDS011;68148;55.328;86.106;2023-03-04T07:51:15;4.07;;;1.15;;
78799;SDS011;68148;55.328;86.106;2023-03-04T07:53:47;3.92;;;1.58;;
78799;SDS011;68148;55.328;86.106;2023-03-04T07:56:16;2.20;;;0.98;;
78799;SDS011;68148;55.328;86.106;2023-03-04T07:58:44;1.92;;;1.02;;
78799;SDS011;68148;55.328;86.106;2023-03-04T08:01:17;5.38;;;2.35;;
78799;SDS011;68148;55.328;86.106;2023-03-04T08:03:45;3.00;;;1.35;;
78799;SDS011;68148;55.328;86.106;2023-03-04T08:06:12;2.72;;;1.42;;
78799;SDS011;68148;55.328;86.106;2023-03-04T08:08:40;2.05;;;0.85;;
78799;SDS011;68148;55.328;86.106;2023-03-04T08:11:12;1.60;;;0.90;;
78799;SDS011;68148;55.328;86.106;2023-03-04T08:13:42;3.22;;;0.80;;
78799;SDS011;68148;55.328;86.106;2023-03-04T08:16:11;4.78;;;2.10;;
78799;SDS011;68148;55.328;86.106;2023-03-04T08:18:38;4.07;;;1.73;;
78799;SDS011;68148;55.328;86.106;2023-03-04T08:21:07;6.38;;;1.90;;
78799;SDS011;68148;55.328;86.106;2023-03-04T08:23:33;4.38;;;2.25;;
78799;SDS011;68148;55.328;86.106;2023-03-04T08:26:04;3.28;;;1.55;;
78799;SDS011;68148;55.328;86.106;2023-03-04T08:28:31;3.20;;;1.48;;
78799;SDS011;68148;55.328;86.106;2023-03-04T08:30:57;4.53;;;1.17;;
78799;SDS011;68148;55.328;86.106;2023-03-04T08:33:23;4.28;;;1.85;;
78799;SDS011;68148;55.328;86.106;2023-03-04T08:35:49;6.22;;;2.95;;
78799;SDS011;68148;55.328;86.106;2023-03-04T08:38:15;7.78;;;2.72;;
78799;SDS011;68148;55.328;86.106;2023-03-04T08:40:41;4.05;;;0.98;;
78799;SDS011;68148;55.328;86.106;2023-03-04T08:43:07;3.42;;;1.45;;
78799;SDS011;68148;55.328;86.106;2023-03-04T08:45:33;2.70;;;1.75;;
78799;SDS011;68148;55.328;86.106;2023-03-04T08:47:59;4.00;;;1.40;;
78799;SDS011;68148;55.328;86.106;2023-03-04T08:50:26;4.82;;;1.33;;
78799;SDS011;68148;55.328;86.106;2023-03-04T08:52:52;3.83;;;1.70;;
78799;SDS011;68148;55.328;86.106;2023-03-04T08:55:20;5.82;;;2.28;;
78799;SDS011;68148;55.328;86.106;2023-03-04T08:57:46;3.47;;;1.20;;
78799;SDS011;68148;55.328;86.106;2023-03-04T09:00:12;4.45;;;1.10;;
78799;SDS011;68148;55.328;86.106;2023-03-04T09:02:38;1.88;;;0.80;;
78799;SDS011;68148;55.328;86.106;2023-03-04T09:05:05;6.97;;;1.88;;
78799;SDS011;68148;55.328;86.106;2023-03-04T09:07:32;4.55;;;2.13;;
78799;SDS011;68148;55.328;86.106;2023-03-04T09:09:58;3.42;;;1.83;;
78799;SDS011;68148;55.328;86.106;2023-03-04T09:12:25;6.60;;;1.90;;
78799;SDS011;68148;55.328;86.106;2023-03-04T09:14:51;9.23;;;2.17;;
78799;SDS011;68148;55.328;86.106;2023-03-04T09:17:17;5.55;;;1.50;;
78799;SDS011;68148;55.328;86.106;2023-03-04T09:19:42;3.10;;;1.42;;
78799;SDS011;68148;55.328;86.106;2023-03-04T09:22:08;4.93;;;2.00;;
78799;SDS011;68148;55.328;86.106;2023-03-04T09:24:35;7.40;;;2.33;;
78799;SDS011;68148;55.328;86.106;2023-03-04T09:27:02;4.03;;;1.67;;
78799;SDS011;68148;55.328;86.106;2023-03-04T09:29:30;6.07;;;1.70;;
78799;SDS011;68148;55.328;86.106;2023-03-04T09:31:56;19.52;;;2.75;;
78799;SDS011;68148;55.328;86.106;2023-03-04T09:34:22;2.70;;;1.25;;
78799;SDS011;68148;55.328;86.106;2023-03-04T09:36:48;5.57;;;2.20;;
78799;SDS011;68148;55.328;86.106;2023-03-04T09:39:16;5.35;;;1.88;;
78799;SDS011;68148;55.328;86.106;2023-03-04T09:42:03;7.03;;;1.92;;
78799;SDS011;68148;55.328;86.106;2023-03-04T09:44:51;4.07;;;2.00;;
78799;SDS011;68148;55.328;86.106;2023-03-04T09:47:39;7.97;;;2.60;;
78799;SDS011;68148;55.328;86.106;2023-03-04T09:50:25;9.05;;;2.08;;
78799;SDS011;68148;55.328;86.106;2023-03-04T09:53:22;9.40;;;2.75;;
78799;SDS011;68148;55.328;86.106;2023-03-04T09:56:42;6.53;;;2.35;;
78799;SDS011;68148;55.328;86.106;2023-03-04T09:59:42;11.45;;;2.67;;
78799;SDS011;68148;55.328;86.106;2023-03-04T10:05:16;4.32;;;1.88;;
78799;SDS011;68148;55.328;86.106;2023-03-04T10:08:07;3.70;;;1.50;;
78799;SDS011;68148;55.328;86.106;2023-03-04T10:10:54;3.72;;;2.05;;
78799;SDS011;68148;55.328;86.106;2023-03-04T10:13:58;5.38;;;2.58;;
78799;SDS011;68148;55.328;86.106;2023-03-04T10:16:17;5.68;;;1.58;;
78799;SDS011;68148;55.328;86.106;2023-03-04T10:18:48;6.82;;;2.90;;
78799;SDS011;68148;55.328;86.106;2023-03-04T10:21:34;6.35;;;1.95;;
78799;SDS011;68148;55.328;86.106;2023-03-04T10:27:09;4.05;;;1.55;;
78799;SDS011;68148;55.328;86.106;2023-03-04T10:29:40;5.60;;;2.05;;
78799;SDS011;68148;55.328;86.106;2023-03-04T10:32:09;7.88;;;2.35;;
78799;SDS011;68148;55.328;86.106;2023-03-04T10:34:40;7.47;;;2.75;;
78799;SDS011;68148;55.328;86.106;2023-03-04T10:37:06;3.58;;;2.17;;
78799;SDS011;68148;55.328;86.106;2023-03-04T10:39:43;7.93;;;2.20;;
78799;SDS011;68148;55.328;86.106;2023-03-04T10:44:43;4.90;;;3.13;;
78799;SDS011;68148;55.328;86.106;2023-03-04T10:47:17;5.93;;;2.30;;
78799;SDS011;68148;55.328;86.106;2023-03-04T10:49:53;6.57;;;2.42;;
78799;SDS011;68148;55.328;86.106;2023-03-04T10:54:55;4.35;;;2.28;;
78799;SDS011;68148;55.328;86.106;2023-03-04T10:59:58;5.50;;;1.73;;
78799;SDS011;68148;55.328;86.106;2023-03-04T11:02:27;6.63;;;2.80;;
78799;SDS011;68148;55.328;86.106;2023-03-04T11:07:53;4.03;;;2.60;;
78799;SDS011;68148;55.328;86.106;2023-03-04T11:12:49;8.18;;;2.38;;
78799;SDS011;68148;55.328;86.106;2023-03-04T11:16:37;6.03;;;1.50;;
78799;SDS011;68148;55.328;86.106;2023-03-04T11:18:50;3.60;;;1.50;;
78799;SDS011;68148;55.328;86.106;2023-03-04T11:21:23;6.93;;;2.90;;
78799;SDS011;68148;55.328;86.106;2023-03-04T11:40:12;9.18;;;3.30;;
78799;SDS011;68148;55.328;86.106;2023-03-04T11:45:15;3.28;;;1.80;;
78799;SDS011;68148;55.328;86.106;2023-03-04T11:48:02;12.43;;;4.40;;
78799;SDS011;68148;55.328;86.106;2023-03-04T11:50:42;8.70;;;2.20;;
78799;SDS011;68148;55.328;86.106;2023-03-04T11:54:15;8.32;;;3.70;;
78799;SDS011;68148;55.328;86.106;2023-03-04T11:56:38;14.20;;;3.60;;
78799;SDS011;68148;55.328;86.106;2023-03-04T12:15:38;10.48;;;4.07;;
78799;SDS011;68148;55.328;86.106;2023-03-04T12:30:01;5.68;;;2.17;;
78799;SDS011;68148;55.328;86.106;2023-03-04T12:38:48;23.27;;;4.40;;
78799;SDS011;68148;55.328;86.106;2023-03-04T12:41:33;3.70;;;2.03;;
78799;SDS011;68148;55.328;86.106;2023-03-04T12:44:16;7.65;;;3.25;;
78799;SDS011;68148;55.328;86.106;2023-03-04T12:46:51;7.72;;;2.67;;
78799;SDS011;68148;55.328;86.106;2023-03-04T12:49:45;4.78;;;2.88;;
78799;SDS011;68148;55.328;86.106;2023-03-04T12:52:27;7.65;;;2.85;;
78799;SDS011;68148;55.328;86.106;2023-03-04T12:55:17;10.98;;;3.88;;
78799;SDS011;68148;55.328;86.106;2023-03-04T12:57:46;3.42;;;1.98;;
78799;SDS011;68148;55.328;86.106;2023-03-04T13:03:18;8.70;;;3.80;;
78799;SDS011;68148;55.328;86.106;2023-03-04T13:11:41;6.30;;;3.38;;
78799;SDS011;68148;55.328;86.106;2023-03-04T13:22:26;8.05;;;2.20;;
78799;SDS011;68148;55.328;86.106;2023-03-04T13:43:38;4.13;;;2.03;;
78799;SDS011;68148;55.328;86.106;2023-03-04T13:51:30;1.73;;;0.75;;
78799;SDS011;68148;55.328;86.106;2023-03-04T13:56:34;5.90;;;2.58;;
78799;SDS011;68148;55.328;86.106;2023-03-04T14:01:33;4.60;;;2.50;;
78799;SDS011;68148;55.328;86.106;2023-03-04T14:06:47;1.73;;;1.05;;
78799;SDS011;68148;55.328;86.106;2023-03-04T14:09:15;1.73;;;1.00;;
78799;SDS011;68148;55.328;86.106;2023-03-04T14:11:44;2.00;;;1.17;;
78799;SDS011;68148;55.328;86.106;2023-03-04T14:14:13;6.75;;;2.13;;
78799;SDS011;68148;55.328;86.106;2023-03-04T14:16:47;5.35;;;2.20;;
78799;SDS011;68148;55.328;86.106;2023-03-04T14:19:23;3.05;;;1.17;;
78799;SDS011;68148;55.328;86.106;2023-03-04T14:21:54;2.83;;;1.42;;
78799;SDS011;68148;55.328;86.106;2023-03-04T14:24:21;4.75;;;1.38;;
78799;SDS011;68148;55.328;86.106;2023-03-04T14:26:48;2.10;;;0.98;;
78799;SDS011;68148;55.328;86.106;2023-03-04T14:29:18;6.20;;;2.15;;
78799;SDS011;68148;55.328;86.106;2023-03-04T14:31:54;2.75;;;1.02;;
78799;SDS011;68148;55.328;86.106;2023-03-04T14:34:28;2.22;;;0.77;;
78799;SDS011;68148;55.328;86.106;2023-03-04T14:36:56;2.55;;;1.50;;
78799;SDS011;68148;55.328;86.106;2023-03-04T14:39:25;2.05;;;1.17;;
78799;SDS011;68148;55.328;86.106;2023-03-04T14:41:54;4.28;;;2.05;;
78799;SDS011;68148;55.328;86.106;2023-03-04T14:47:06;1.98;;;0.85;;
78799;SDS011;68148;55.328;86.106;2023-03-04T14:49:40;7.65;;;1.60;;
78799;SDS011;68148;55.328;86.106;2023-03-04T14:52:06;5.32;;;2.50;;
78799;SDS011;68148;55.328;86.106;2023-03-04T14:55:01;11.57;;;4.15;;
78799;SDS011;68148;55.328;86.106;2023-03-04T14:57:28;15.52;;;5.90;;
78799;SDS011;68148;55.328;86.106;2023-03-04T15:00:12;22.83;;;5.43;;
78799;SDS011;68148;55.328;86.106;2023-03-04T15:02:47;21.02;;;5.50;;
78799;SDS011;68148;55.328;86.106;2023-03-04T15:05:25;12.43;;;4.22;;
78799;SDS011;68148;55.328;86.106;2023-03-04T15:08:15;14.52;;;6.05;;
78799;SDS011;68148;55.328;86.106;2023-03-04T15:11:01;8.80;;;3.72;;
78799;SDS011;68148;55.328;86.106;2023-03-04T15:16:27;8.35;;;2.60;;
78799;SDS011;68148;55.328;86.106;2023-03-04T15:19:23;8.35;;;2.35;;
78799;SDS011;68148;55.328;86.106;2023-03-04T15:22:03;5.57;;;1.80;;
78799;SDS011;68148;55.328;86.106;2023-03-04T15:24:30;9.35;;;2.35;;
78799;SDS011;68148;55.328;86.106;2023-03-04T15:27:01;7.80;;;1.98;;
78799;SDS011;68148;55.328;86.106;2023-03-04T15:29:27;3.67;;;1.63;;
78799;SDS011;68148;55.328;86.106;2023-03-04T15:31:54;4.93;;;2.08;;
78799;SDS011;68148;55.328;86.106;2023-03-04T15:34:20;2.85;;;1.33;;
78799;SDS011;68148;55.328;86.106;2023-03-04T15:36:48;2.80;;;1.55;;
78799;SDS011;68148;55.328;86.106;2023-03-04T15:39:15;5.65;;;1.70;;
78799;SDS011;68148;55.328;86.106;2023-03-04T15:41:42;3.35;;;1.20;;
78799;SDS011;68148;55.328;86.106;2023-03-04T15:44:11;2.05;;;1.05;;
78799;SDS011;68148;55.328;86.106;2023-03-04T15:46:40;3.08;;;1.70;;
78799;SDS011;68148;55.328;86.106;2023-03-04T15:49:06;4.68;;;1.92;;
78799;SDS011;68148;55.328;86.106;2023-03-04T15:51:32;5.70;;;2.55;;
78799;SDS011;68148;55.328;86.106;2023-03-04T15:53:58;6.70;;;2.10;;
78799;SDS011;68148;55.328;86.106;2023-03-04T15:56:26;5.65;;;2.30;;
78799;SDS011;68148;55.328;86.106;2023-03-04T15:59:03;5.35;;;2.22;;
78799;SDS011;68148;55.328;86.106;2023-03-04T16:01:35;6.97;;;2.75;;
78799;SDS011;68148;55.328;86.106;2023-03-04T16:04:01;4.68;;;2.10;;
78799;SDS011;68148;55.328;86.106;2023-03-04T16:06:28;1.73;;;0.93;;
78799;SDS011;68148;55.328;86.106;2023-03-04T16:08:56;5.93;;;1.90;;
78799;SDS011;68148;55.328;86.106;2023-03-04T16:11:26;1.85;;;1.13;;
78799;SDS011;68148;55.328;86.106;2023-03-04T16:13:55;1.90;;;0.95;;
78799;SDS011;68148;55.328;86.106;2023-03-04T16:16:21;2.35;;;1.20;;
78799;SDS011;68148;55.328;86.106;2023-03-04T16:18:49;4.28;;;1.25;;
78799;SDS011;68148;55.328;86.106;2023-03-04T16:21:18;4.30;;;1.83;;
78799;SDS011;68148;55.328;86.106;2023-03-04T16:23:46;3.58;;;1.35;;
78799;SDS011;68148;55.328;86.106;2023-03-04T16:26:17;4.03;;;1.42;;
78799;SDS011;68148;55.328;86.106;2023-03-04T16:28:45;6.10;;;2.15;;
78799;SDS011;68148;55.328;86.106;2023-03-04T16:31:12;2.85;;;2.08;;
78799;SDS011;68148;55.328;86.106;2023-03-04T16:33:39;7.88;;;1.48;;
78799;SDS011;68148;55.328;86.106;2023-03-04T16:36:17;2.45;;;1.25;;
78799;SDS011;68148;55.328;86.106;2023-03-04T16:38:48;2.53;;;1.13;;
78799;SDS011;68148;55.328;86.106;2023-03-04T16:43:45;1.65;;;0.90;;
78799;SDS011;68148;55.328;86.106;2023-03-04T16:46:13;7.13;;;1.48;;
78799;SDS011;68148;55.328;86.106;2023-03-04T16:48:42;0.68;;;0.55;;
78799;SDS011;68148;55.328;86.106;2023-03-04T16:51:15;3.38;;;1.50;;
78799;SDS011;68148;55.328;86.106;2023-03-04T16:53:47;1.70;;;0.90;;
78799;SDS011;68148;55.328;86.106;2023-03-04T16:56:18;3.08;;;1.17;;
78799;SDS011;68148;55.328;86.106;2023-03-04T16:58:44;1.80;;;0.55;;
78799;SDS011;68148;55.328;86.106;2023-03-04T17:03:45;2.10;;;1.00;;
78799;SDS011;68148;55.328;86.106;2023-03-04T17:06:11;2.33;;;1.15;;
78799;SDS011;68148;55.328;86.106;2023-03-04T17:08:38;3.22;;;0.80;;
78799;SDS011;68148;55.328;86.106;2023-03-04T17:11:09;2.80;;;1.35;;